createdAt,value
2018-09-13T04:16:41.022Z,3
2018-09-13T04:23:11.475Z,7
2018-09-13T04:26:41.633Z,10
2018-09-13T04:28:41.761Z,13
2018-09-13T04:29:41.807Z,17
2018-09-13T04:31:11.903Z,20
2018-09-13T04:32:12.005Z,23
2018-09-13T04:33:12.054Z,27
2018-09-13T04:33:42.111Z,30
2018-09-13T04:34:42.103Z,33
2018-09-13T04:35:12.197Z,37
2018-09-13T04:35:42.315Z,40
2018-09-13T04:36:12.421Z,43
2018-09-13T04:36:42.259Z,47
2018-09-13T04:37:12.312Z,53
2018-09-13T04:37:42.323Z,57
2018-09-13T04:38:12.370Z,60
2018-09-13T04:38:42.380Z,63
2018-09-13T04:39:12.433Z,67
2018-09-13T04:39:42.409Z,70
2018-09-13T04:40:12.508Z,77
2018-09-13T04:40:42.501Z,80
2018-09-13T04:41:12.520Z,83
2018-09-13T04:41:42.546Z,90
2018-09-13T04:42:12.613Z,93
2018-09-13T04:42:42.592Z,100
2018-09-13T04:43:12.665Z,103
2018-09-13T04:43:42.658Z,110
2018-09-13T04:44:12.710Z,113
2018-09-13T04:44:42.759Z,120
2018-09-13T04:45:12.813Z,123
2018-09-13T04:45:42.775Z,130
2018-09-13T04:46:12.834Z,137
2018-09-13T04:46:42.868Z,140
2018-09-13T04:47:12.879Z,147
2018-09-13T04:47:42.898Z,153
2018-09-13T04:48:12.943Z,163
2018-09-13T04:48:43.099Z,170
2018-09-13T04:49:13.095Z,183
2018-09-13T04:49:43.049Z,193
2018-09-13T04:50:13.093Z,207
2018-09-13T04:50:43.113Z,217
2018-09-13T04:51:13.131Z,227
2018-09-13T04:51:43.152Z,243
2018-09-13T04:52:13.233Z,257
2018-09-13T04:52:43.206Z,270
2018-09-13T04:53:13.327Z,287
2018-09-13T04:53:43.282Z,297
2018-09-13T04:54:13.374Z,310
2018-09-13T04:54:43.393Z,317
2018-09-13T04:55:13.444Z,327
2018-09-13T04:55:43.411Z,330
2018-09-13T04:56:13.477Z,337
2018-09-13T04:56:43.464Z,343
2018-09-13T04:57:13.520Z,353
2018-09-13T04:57:43.588Z,357
2018-09-13T04:58:13.561Z,333
2018-09-13T04:58:43.605Z,347
2018-09-13T04:59:13.618Z,350
2018-09-13T04:59:43.653Z,357
2018-09-13T05:00:13.855Z,360
2018-09-13T05:00:43.727Z,367
2018-09-13T05:01:43.776Z,380
2018-09-13T05:02:13.824Z,393
2018-09-13T05:02:43.820Z,403
2018-09-13T05:03:13.878Z,417
2018-09-13T05:03:43.884Z,427
2018-09-13T05:04:13.992Z,437
2018-09-13T05:04:43.968Z,450
2018-09-13T05:05:14.025Z,460
2018-09-13T05:05:44.004Z,453
2018-09-13T05:06:14.077Z,467
2018-09-13T05:06:44.074Z,477
2018-09-13T05:07:14.118Z,497
2018-09-13T05:07:44.184Z,503
2018-09-13T05:08:14.183Z,507
2018-09-13T05:09:14.304Z,510
2018-09-13T05:09:44.253Z,517
2018-09-13T05:10:14.336Z,527
2018-09-13T05:10:44.369Z,530
2018-09-13T05:11:14.427Z,543
2018-09-13T05:11:44.422Z,567
2018-09-13T05:12:14.471Z,583
2018-09-13T05:12:44.553Z,603
2018-09-13T05:13:14.546Z,623
2018-09-13T05:13:44.557Z,643
2018-09-13T05:14:14.580Z,683
2018-09-13T05:14:44.630Z,710
2018-09-13T05:15:14.724Z,747
2018-09-13T05:15:44.694Z,777
2018-09-13T05:16:14.674Z,797
2018-09-13T05:16:44.755Z,783
2018-09-13T05:17:14.809Z,760
2018-09-13T05:17:44.822Z,740
2018-09-13T05:18:44.833Z,767
2018-09-13T05:19:14.889Z,807
2018-09-13T05:19:44.928Z,863
2018-09-13T05:20:15.029Z,923
2018-09-13T05:20:45.012Z,973
2018-09-13T05:21:15.028Z,1013
2018-09-13T05:21:45.057Z,1053
2018-09-13T05:22:15.085Z,1060
2018-09-13T05:22:45.103Z,1067
2018-09-13T05:23:15.095Z,1070
2018-09-13T05:23:45.179Z,1103
2018-09-13T05:24:15.250Z,1143
2018-09-13T05:24:45.200Z,1190
2018-09-13T05:25:15.348Z,1250
2018-09-13T05:25:45.285Z,1210
2018-09-13T05:26:15.330Z,1240
2018-09-13T05:26:45.352Z,1280
2018-09-13T05:27:15.431Z,1353
2018-09-13T05:27:45.405Z,1437
2018-09-13T05:28:15.437Z,1520
2018-09-13T05:28:45.463Z,1613
2018-09-13T05:29:15.494Z,1690
2018-09-13T05:29:45.532Z,1753
2018-09-13T05:30:15.567Z,1823
2018-09-13T05:30:45.544Z,1900
2018-09-13T05:31:15.669Z,1977
2018-09-13T05:31:45.706Z,2057
2018-09-13T05:32:15.654Z,2133
2018-09-13T05:32:45.726Z,2197
2018-09-13T05:33:15.712Z,2267
2018-09-13T05:33:45.728Z,2350
2018-09-13T05:34:15.795Z,2427
2018-09-13T05:34:45.826Z,2500
2018-09-13T05:35:15.934Z,2573
2018-09-13T05:35:45.852Z,2673
2018-09-13T05:36:15.906Z,2710
2018-09-13T05:36:45.907Z,2693
2018-09-13T05:37:15.973Z,2600
2018-09-13T05:37:45.979Z,2443
2018-09-13T05:38:16.073Z,2257
2018-09-13T05:38:46.126Z,2133
2018-09-13T05:39:16.136Z,2083
2018-09-13T05:39:46.140Z,2097
2018-09-13T05:40:16.211Z,2180
2018-09-13T05:40:46.176Z,2277
2018-09-13T05:41:16.307Z,2393
2018-09-13T05:41:46.251Z,2523
2018-09-13T05:42:16.358Z,2623
2018-09-13T05:42:46.282Z,2687
2018-09-13T05:43:16.357Z,2753
2018-09-13T05:43:46.380Z,2717
2018-09-13T05:44:16.417Z,2643
2018-09-13T05:44:46.443Z,2557
2018-09-13T05:45:16.587Z,2480
2018-09-13T05:45:46.549Z,2433
2018-09-13T05:46:16.532Z,2420
2018-09-13T05:46:46.563Z,2453
2018-09-13T05:47:16.616Z,2510
2018-09-13T05:47:46.704Z,2587
2018-09-13T05:48:16.643Z,2687
2018-09-13T05:48:46.706Z,2747
2018-09-13T05:49:16.705Z,2773
2018-09-13T05:50:16.761Z,2753
2018-09-13T05:50:46.790Z,2707
2018-09-13T05:51:16.862Z,2667
2018-09-13T05:51:46.898Z,2600
2018-09-13T05:52:16.884Z,2560
2018-09-13T05:52:46.912Z,2533
2018-09-13T05:53:16.942Z,2537
2018-09-13T05:53:46.962Z,2560
2018-09-13T05:54:17.020Z,2603
2018-09-13T05:54:47.030Z,2663
2018-09-13T05:55:17.076Z,2737
2018-09-13T05:55:47.079Z,2820
2018-09-13T05:56:17.175Z,2883
2018-09-13T05:56:47.151Z,2897
2018-09-13T05:57:17.222Z,2847
2018-09-13T05:57:47.236Z,2733
2018-09-13T05:58:17.387Z,2573
2018-09-13T05:58:47.304Z,2420
2018-09-13T05:59:17.373Z,2303
2018-09-13T05:59:47.361Z,2230
2018-09-13T06:00:47.471Z,2270
2018-09-13T06:01:17.515Z,2347
2018-09-13T06:01:47.518Z,2423
2018-09-13T06:02:17.561Z,2480
2018-09-13T06:02:47.579Z,2500
2018-09-13T06:03:17.559Z,2480
2018-09-13T06:03:47.599Z,2453
2018-09-13T06:04:17.662Z,2423
2018-09-13T06:04:47.674Z,2407
2018-09-13T06:05:17.729Z,2393
2018-09-13T06:05:47.733Z,2390
2018-09-13T06:06:17.817Z,2407
2018-09-13T06:06:47.788Z,2453
2018-09-13T06:07:17.837Z,2533
2018-09-13T06:07:47.898Z,2643
2018-09-13T06:08:17.892Z,2760
2018-09-13T06:08:47.915Z,2833
2018-09-13T06:09:17.988Z,2877
2018-09-13T06:09:48.013Z,2880
2018-09-13T06:10:18.009Z,2847
2018-09-13T06:10:48.067Z,2787
2018-09-13T06:11:18.074Z,2717
2018-09-13T06:11:48.105Z,2647
2018-09-13T06:12:18.117Z,2583
2018-09-13T06:12:48.181Z,2540
2018-09-13T06:13:18.243Z,2507
2018-09-13T06:13:48.271Z,2483
2018-09-13T06:14:18.259Z,2473
2018-09-13T06:15:18.320Z,2487
2018-09-13T06:15:48.387Z,2507
2018-09-13T06:16:18.415Z,2537
2018-09-13T06:16:48.433Z,2570
2018-09-13T06:17:18.484Z,2613
2018-09-13T06:17:48.452Z,2657
2018-09-13T06:18:18.552Z,2693
2018-09-13T06:18:48.567Z,2720
2018-09-13T06:19:18.563Z,2740
2018-09-13T06:19:48.684Z,2757
2018-09-13T06:20:18.671Z,2787
2018-09-13T06:20:48.648Z,2837
2018-09-13T06:21:18.678Z,2897
2018-09-13T06:21:48.689Z,2957
2018-09-13T06:22:18.764Z,2990
2018-09-13T06:22:48.739Z,3010
2018-09-13T06:23:18.787Z,3013
2018-09-13T06:23:48.807Z,3003
2018-09-13T06:24:18.873Z,2993
2018-09-13T06:24:48.947Z,2987
2018-09-13T06:26:48.991Z,2983
2018-09-13T06:27:19.055Z,2980
2018-09-13T06:27:49.076Z,2983
2018-09-13T06:28:19.158Z,2990
2018-09-13T06:28:49.173Z,3007
2018-09-13T06:29:19.166Z,3017
2018-09-13T06:29:49.262Z,3010
2018-09-13T06:30:19.282Z,2983
2018-09-13T06:30:49.294Z,2927
2018-09-13T06:31:19.321Z,2840
2018-09-13T06:31:49.358Z,2750
2018-09-13T06:32:19.401Z,2670
2018-09-13T06:32:49.407Z,2607
2018-09-13T06:33:19.480Z,2560
2018-09-13T06:33:49.441Z,2523
2018-09-13T06:34:19.525Z,2490
2018-09-13T06:34:49.519Z,2470
2018-09-13T06:35:19.529Z,2457
2018-09-13T06:35:49.570Z,2450
2018-09-13T06:36:19.662Z,2457
2018-09-13T06:36:49.625Z,2473
2018-09-13T06:37:19.729Z,2497
2018-09-13T06:37:49.680Z,2527
2018-09-13T06:38:19.792Z,2557
2018-09-13T06:38:49.791Z,2587
2018-09-13T06:39:19.775Z,2613
2018-09-13T06:39:49.796Z,2637
2018-09-13T06:40:19.860Z,2660
2018-09-13T06:40:49.889Z,2677
2018-09-13T06:41:19.908Z,2693
2018-09-13T06:41:50.121Z,2720
2018-09-13T06:42:19.975Z,2750
2018-09-13T06:42:49.981Z,2790
2018-09-13T06:43:20.030Z,2847
2018-09-13T06:43:50.112Z,2907
2018-09-13T06:44:20.111Z,2960
2018-09-13T06:44:50.105Z,2997
2018-09-13T06:45:20.201Z,3027
2018-09-13T06:45:50.173Z,3037
2018-09-13T06:46:20.321Z,3040
2018-09-13T06:46:50.275Z,3033
2018-09-13T06:47:20.276Z,3037
2018-09-13T06:47:50.338Z,3050
2018-09-13T06:48:20.365Z,3083
2018-09-13T06:48:50.386Z,3137
2018-09-13T06:49:20.401Z,3203
2018-09-13T06:49:50.500Z,3297
2018-09-13T06:50:20.486Z,3410
2018-09-13T06:50:50.527Z,3537
2018-09-13T06:51:20.613Z,3673
2018-09-13T06:51:50.574Z,3817
2018-09-13T06:52:20.671Z,3953
2018-09-13T06:52:50.646Z,4087
2018-09-13T06:53:20.701Z,4233
2018-09-13T06:53:50.708Z,4387
2018-09-13T06:54:20.745Z,4540
2018-09-13T06:54:50.769Z,4687
2018-09-13T06:55:20.822Z,4823
2018-09-13T06:55:50.844Z,4957
2018-09-13T06:56:20.883Z,5090
2018-09-13T06:56:50.880Z,5210
2018-09-13T06:57:20.932Z,5343
2018-09-13T06:57:50.945Z,5493
2018-09-13T06:58:21.037Z,5653
2018-09-13T06:58:51.009Z,5830
2018-09-13T06:59:21.032Z,6013
2018-09-13T06:59:51.075Z,6183
2018-09-13T07:00:21.070Z,6310
2018-09-13T07:00:51.124Z,6377
2018-09-13T07:01:21.165Z,6400
2018-09-13T07:01:51.187Z,6410
2018-09-13T07:02:21.239Z,6427
2018-09-13T07:02:51.235Z,6477
2018-09-13T07:03:21.304Z,6560
2018-09-13T07:03:51.322Z,6643
2018-09-13T07:04:21.381Z,6720
2018-09-13T07:04:51.373Z,6770
2018-09-13T07:05:21.426Z,6783
2018-09-13T07:05:51.430Z,6767
2018-09-13T07:06:21.485Z,6757
2018-09-13T07:06:51.495Z,6753
2018-09-13T07:07:21.585Z,6763
2018-09-13T07:07:51.554Z,6737
2018-09-13T07:08:21.572Z,6680
2018-09-13T07:08:51.628Z,6613
2018-09-13T07:09:21.648Z,6553
2018-09-13T07:09:51.658Z,6507
2018-09-13T07:10:21.744Z,6453
2018-09-13T07:10:51.746Z,6377
2018-09-13T07:11:21.760Z,6270
2018-09-13T07:11:51.795Z,6127
2018-09-13T07:12:21.830Z,5943
2018-09-13T07:12:51.836Z,5747
2018-09-13T07:13:21.886Z,5557
2018-09-13T07:13:51.896Z,5417
2018-09-13T07:14:21.976Z,5303
2018-09-13T07:14:51.979Z,5200
2018-09-13T07:15:22.001Z,5097
2018-09-13T07:15:52.020Z,4983
2018-09-13T07:16:22.095Z,4863
2018-09-13T07:16:52.075Z,4740
2018-09-13T07:17:22.209Z,4630
2018-09-13T07:17:52.163Z,4530
2018-09-13T07:18:22.230Z,4450
2018-09-13T07:18:52.237Z,4373
2018-09-13T07:19:22.312Z,4303
2018-09-13T07:19:52.286Z,4253
2018-09-13T07:20:22.341Z,4213
2018-09-13T07:20:52.335Z,4190
2018-09-13T07:21:22.422Z,4180
2018-09-13T07:21:52.472Z,4183
2018-09-13T07:22:22.472Z,4197
2018-09-13T07:22:52.471Z,4220
2018-09-13T07:23:22.500Z,4243
2018-09-13T07:23:52.530Z,4267
2018-09-13T07:24:22.629Z,4283
2018-09-13T07:24:52.646Z,4300
2018-09-13T07:25:22.676Z,4303
2018-09-13T07:26:52.712Z,4313
2018-09-13T07:27:22.741Z,4337
2018-09-13T07:27:52.808Z,4363
2018-09-13T07:28:22.816Z,4400
2018-09-13T07:28:52.816Z,4440
2018-09-13T07:29:22.868Z,4473
2018-09-13T07:29:52.877Z,4497
2018-09-13T07:30:22.976Z,4530
2018-09-13T07:30:53.000Z,4567
2018-09-13T07:31:22.990Z,4620
2018-09-13T07:31:53.012Z,4693
2018-09-13T07:32:23.108Z,4790
2018-09-13T07:32:53.061Z,4907
2018-09-13T07:33:23.120Z,5030
2018-09-13T07:33:53.207Z,5153
2018-09-13T07:34:23.234Z,5277
2018-09-13T07:34:53.210Z,5387
2018-09-13T07:35:23.285Z,5507
2018-09-13T07:35:53.315Z,5637
2018-09-13T07:36:23.290Z,5773
2018-09-13T07:36:53.343Z,5943
2018-09-13T07:37:23.352Z,6137
2018-09-13T07:37:53.394Z,6353
2018-09-13T07:38:23.476Z,6600
2018-09-13T07:38:53.462Z,6857
2018-09-13T07:39:23.535Z,7133
2018-09-13T07:39:53.538Z,7427
2018-09-13T07:40:24.083Z,7743
2018-09-13T07:40:53.557Z,8063
2018-09-13T07:41:23.675Z,8397
2018-09-13T07:41:53.675Z,8733
2018-09-13T07:42:23.741Z,9023
2018-09-13T07:42:53.784Z,9283
2018-09-13T07:43:23.799Z,9547
2018-09-13T07:43:53.783Z,9800
2018-09-13T07:44:23.809Z,10027
2018-09-13T07:44:53.842Z,10227
2018-09-13T07:45:23.910Z,10373
2018-09-13T07:45:53.927Z,10453
2018-09-13T07:46:23.937Z,10490
2018-09-13T07:46:53.923Z,10450
2018-09-13T07:47:24.011Z,10343
2018-09-13T07:47:54.023Z,10207
2018-09-13T07:48:24.106Z,10050
2018-09-13T07:48:54.088Z,9923
2018-09-13T07:49:24.190Z,9850
2018-09-13T07:49:54.282Z,9833
2018-09-13T07:50:24.164Z,9817
2018-09-13T07:50:54.239Z,9807
2018-09-13T07:51:24.254Z,9803
2018-09-13T07:51:54.279Z,9790
2018-09-13T07:52:24.318Z,9747
2018-09-13T07:52:54.335Z,9667
2018-09-13T07:53:24.384Z,9593
2018-09-13T07:53:54.366Z,9557
2018-09-13T07:54:24.446Z,9540
2018-09-13T07:54:54.462Z,9530
2018-09-13T07:55:24.505Z,9520
2018-09-13T07:55:54.509Z,9497
2018-09-13T07:56:24.585Z,9453
2018-09-13T07:56:54.544Z,9387
2018-09-13T07:57:24.633Z,9300
2018-09-13T07:57:54.615Z,9177
2018-09-13T07:58:24.704Z,9067
2018-09-13T07:58:54.729Z,8937
2018-09-13T07:59:24.767Z,8800
2018-09-13T07:59:54.769Z,8670
2018-09-13T08:00:24.775Z,8563
2018-09-13T08:00:54.855Z,8503
2018-09-13T08:01:24.845Z,8470
2018-09-13T08:01:54.851Z,8450
2018-09-13T08:02:24.897Z,8420
2018-09-13T08:02:54.909Z,8377
2018-09-13T08:03:24.957Z,8320
2018-09-13T08:03:55.003Z,8257
2018-09-13T08:04:25.012Z,8187
2018-09-13T08:04:55.107Z,8123
2018-09-13T08:05:25.072Z,8093
2018-09-13T08:05:55.159Z,8083
2018-09-13T08:06:55.166Z,8080
2018-09-13T08:07:25.240Z,8060
2018-09-13T08:07:55.219Z,8030
2018-09-13T08:08:25.290Z,8003
2018-09-13T08:08:55.324Z,7973
2018-09-13T08:09:25.370Z,7937
2018-09-13T08:09:55.342Z,7897
2018-09-13T08:10:25.425Z,7877
2018-09-13T08:10:55.686Z,7883
2018-09-13T08:11:25.479Z,7890
2018-09-13T08:11:55.494Z,7880
2018-09-13T08:12:25.523Z,7930
2018-09-13T08:12:55.575Z,8103
2018-09-13T08:13:25.633Z,8313
2018-09-13T08:13:55.596Z,8553
2018-09-13T08:14:25.633Z,8767
2018-09-13T08:14:55.651Z,8953
2018-09-13T08:15:25.712Z,9113
2018-09-13T08:15:55.782Z,9250
2018-09-13T08:16:25.754Z,9397
2018-09-13T08:16:55.784Z,9570
2018-09-13T08:17:25.816Z,9737
2018-09-13T08:17:55.851Z,9920
2018-09-13T08:18:25.930Z,10123
2018-09-13T08:18:55.895Z,10337
2018-09-13T08:19:25.941Z,10543
2018-09-13T08:19:55.958Z,10743
2018-09-13T08:20:26.004Z,11000
2018-09-13T08:20:56.059Z,11310
2018-09-13T08:21:26.063Z,11633
2018-09-13T08:21:56.125Z,11910
2018-09-13T08:22:26.141Z,12113
2018-09-13T08:22:56.131Z,12320
2018-09-13T08:23:26.222Z,12567
2018-09-13T08:23:56.215Z,12860
2018-09-13T08:24:26.281Z,13117
2018-09-13T08:24:56.292Z,13303
2018-09-13T08:25:26.377Z,13417
2018-09-13T08:25:56.360Z,13180
2018-09-13T08:26:26.408Z,13087
2018-09-13T08:26:56.486Z,13070
2018-09-13T08:27:26.485Z,13010
2018-09-13T08:27:56.473Z,12867
2018-09-13T08:28:26.537Z,12587
2018-09-13T08:28:56.536Z,12283
2018-09-13T08:29:26.605Z,12037
2018-09-13T08:29:56.598Z,11807
2018-09-13T08:30:26.641Z,11610
2018-09-13T08:30:57.206Z,11457
2018-09-13T08:31:26.730Z,11267
2018-09-13T08:31:56.783Z,11030
2018-09-13T08:32:26.766Z,10783
2018-09-13T08:32:56.817Z,10627
2018-09-13T08:33:26.906Z,10477
2018-09-13T08:33:56.878Z,10383
2018-09-13T08:34:26.900Z,10343
2018-09-13T08:34:57.093Z,10307
2018-09-13T08:35:26.954Z,10153
2018-09-13T08:35:57.059Z,9870
2018-09-13T08:36:27.010Z,9663
2018-09-13T08:36:57.085Z,9570
2018-09-13T08:37:27.138Z,9533
2018-09-13T08:37:57.132Z,9493
2018-09-13T08:38:27.197Z,9463
2018-09-13T08:38:57.219Z,9470
2018-09-13T08:39:27.241Z,9560
2018-09-13T08:39:57.347Z,9703
2018-09-13T08:40:27.316Z,9817
2018-09-13T08:40:57.352Z,9900
2018-09-13T08:41:27.344Z,9913
2018-09-13T08:41:57.357Z,9890
2018-09-13T08:42:27.400Z,9833
2018-09-13T08:42:57.435Z,9803
2018-09-13T08:43:27.478Z,9790
2018-09-13T08:43:57.450Z,9883
2018-09-13T08:44:27.760Z,9983
2018-09-13T08:44:57.528Z,10113
2018-09-13T08:45:27.576Z,10217
2018-09-13T08:45:57.576Z,10230
2018-09-13T08:46:27.591Z,10160
2018-09-13T08:46:57.681Z,10017
2018-09-13T08:47:27.699Z,9830
2018-09-13T08:47:57.665Z,9640
2018-09-13T08:48:27.793Z,9407
2018-09-13T08:48:57.765Z,9187
2018-09-13T08:49:27.791Z,8990
2018-09-13T08:49:57.802Z,8837
2018-09-13T08:50:27.860Z,8010
2018-09-13T08:50:57.854Z,7800
2018-09-13T08:51:27.902Z,7620
2018-09-13T08:51:57.982Z,7477
2018-09-13T08:52:27.963Z,7427
2018-09-13T08:52:57.973Z,7353
2018-09-13T08:53:28.028Z,7293
2018-09-13T08:53:58.068Z,7353
2018-09-13T08:54:28.128Z,7423
2018-09-13T08:54:58.142Z,7460
2018-09-13T08:55:28.291Z,7650
2018-09-13T08:55:58.177Z,7663
2018-09-13T08:56:28.266Z,7677
2018-09-13T08:56:58.225Z,7477
2018-09-13T08:57:28.272Z,7347
2018-09-13T08:57:58.317Z,7287
2018-09-13T08:58:28.366Z,7057
2018-09-13T08:58:58.361Z,6960
2018-09-13T08:59:28.434Z,6870
2018-09-13T08:59:58.464Z,6910
2018-09-13T09:00:28.546Z,7123
2018-09-13T09:00:58.499Z,7320
2018-09-13T09:01:28.529Z,7653
2018-09-13T09:01:58.576Z,7930
2018-09-13T09:02:28.641Z,8133
2018-09-13T09:02:58.642Z,8293
2018-09-13T09:03:28.650Z,8460
2018-09-13T09:03:58.704Z,8557
2018-09-13T09:04:28.697Z,8703
2018-09-13T09:04:58.719Z,9007
2018-09-13T09:05:28.873Z,9313
2018-09-13T09:05:58.902Z,9640
2018-09-13T09:06:28.898Z,10083
2018-09-13T09:06:58.851Z,10597
2018-09-13T09:07:28.912Z,10983
2018-09-13T09:07:58.926Z,11177
2018-09-13T09:08:28.958Z,11193
2018-09-13T09:08:58.971Z,11090
2018-09-13T09:09:29.010Z,10913
2018-09-13T09:09:59.023Z,10663
2018-09-13T09:10:29.070Z,10250
2018-09-13T09:10:59.349Z,9727
2018-09-13T09:11:29.147Z,9193
2018-09-13T09:11:59.279Z,8887
2018-09-13T09:12:29.237Z,8587
2018-09-13T09:12:59.227Z,8387
2018-09-13T09:13:29.258Z,8363
2018-09-13T09:13:59.303Z,8533
2018-09-13T09:14:29.318Z,8937
2018-09-13T09:14:59.370Z,9610
2018-09-13T09:15:29.380Z,10250
2018-09-13T09:15:59.676Z,10707
2018-09-13T09:16:29.501Z,10963
2018-09-13T09:16:59.495Z,11053
2018-09-13T09:17:29.554Z,10953
2018-09-13T09:17:59.535Z,10767
2018-09-13T09:18:29.612Z,10610
2018-09-13T09:18:59.609Z,10457
2018-09-13T09:19:29.701Z,10297
2018-09-13T09:19:59.677Z,10113
2018-09-13T09:20:29.711Z,9750
2018-09-13T09:21:00.253Z,9267
2018-09-13T09:21:29.800Z,8763
2018-09-13T09:21:59.797Z,8517
2018-09-13T09:22:29.869Z,8663
2018-09-13T09:22:59.893Z,9243
2018-09-13T09:23:29.971Z,10090
2018-09-13T09:23:59.987Z,10767
2018-09-13T09:24:29.993Z,11253
2018-09-13T09:24:59.981Z,11690
2018-09-13T09:25:30.055Z,12040
2018-09-13T09:26:00.077Z,12313
2018-09-13T09:26:30.097Z,12603
2018-09-13T09:27:00.108Z,12970
2018-09-13T09:27:30.147Z,13300
2018-09-13T09:28:00.181Z,13547
2018-09-13T09:28:30.214Z,13700
2018-09-13T09:29:01.756Z,13740
2018-09-13T09:29:30.269Z,13613
2018-09-13T09:30:01.620Z,13320
2018-09-13T09:30:30.402Z,12953
2018-09-13T09:31:00.936Z,12637
2018-09-13T09:31:30.402Z,12457
2018-09-13T09:32:01.402Z,12263
2018-09-13T09:32:30.456Z,11883
2018-09-13T09:33:01.668Z,11203
2018-09-13T09:33:30.536Z,10677
2018-09-13T09:34:01.469Z,10450
2018-09-13T09:34:30.544Z,10227
2018-09-13T09:35:01.619Z,10327
2018-09-13T09:35:30.768Z,10643
2018-09-13T09:36:01.011Z,10860
2018-09-13T09:36:30.717Z,11190
2018-09-13T09:37:01.462Z,11240
2018-09-13T09:37:30.786Z,11207
2018-09-13T09:38:01.494Z,11340
2018-09-13T09:38:30.797Z,11823
2018-09-13T09:39:01.530Z,12173
2018-09-13T09:39:30.857Z,12417
2018-09-13T09:40:01.593Z,12890
2018-09-13T09:40:30.977Z,13597
2018-09-13T09:41:00.933Z,14093
2018-09-13T09:41:30.987Z,14443
2018-09-13T09:42:01.007Z,14670
2018-09-13T09:42:31.040Z,14837
2018-09-13T09:43:01.422Z,14857
2018-09-13T09:43:31.130Z,14847
2018-09-13T09:44:01.519Z,14870
2018-09-13T09:44:31.178Z,14887
2018-09-13T09:45:01.600Z,14970
2018-09-13T09:45:31.263Z,15100
2018-09-13T09:46:01.474Z,15317
2018-09-13T09:46:31.359Z,15597
2018-09-13T09:47:01.300Z,15887
2018-09-13T09:47:31.423Z,16170
2018-09-13T09:48:01.501Z,16550
2018-09-13T09:48:31.410Z,16993
2018-09-13T09:49:01.657Z,17283
2018-09-13T09:49:31.478Z,17583
2018-09-13T09:50:01.484Z,17970
2018-09-13T09:50:31.673Z,18270
2018-09-13T09:51:01.572Z,18500
2018-09-13T09:51:31.664Z,18653
2018-09-13T09:52:01.654Z,18810
2018-09-13T09:52:31.790Z,18953
2018-09-13T09:53:01.721Z,19043
2018-09-13T09:53:31.717Z,18863
2018-09-13T09:54:01.740Z,18457
2018-09-13T09:54:31.784Z,17873
2018-09-13T09:55:01.803Z,17377
2018-09-13T09:55:32.027Z,17220
2018-09-13T09:56:01.883Z,16903
2018-09-13T09:56:31.915Z,16553
2018-09-13T09:57:01.922Z,16083
2018-09-13T09:57:31.973Z,15547
2018-09-13T09:58:02.052Z,15303
2018-09-13T09:58:32.036Z,15263
2018-09-13T09:59:02.040Z,15180
2018-09-13T09:59:32.134Z,14987
2018-09-13T10:00:02.106Z,14587
2018-09-13T10:00:32.281Z,14070
2018-09-13T10:01:02.225Z,13593
2018-09-13T10:01:32.212Z,13177
2018-09-13T10:02:02.228Z,12857
2018-09-13T10:02:32.276Z,12467
2018-09-13T10:03:02.361Z,12140
2018-09-13T10:03:32.344Z,11837
2018-09-13T10:04:02.398Z,11583
2018-09-13T10:04:32.484Z,11400
2018-09-13T10:05:02.445Z,11243
2018-09-13T10:05:32.560Z,11117
2018-09-13T10:06:02.541Z,11073
2018-09-13T10:06:32.562Z,11090
2018-09-13T10:07:02.596Z,11130
2018-09-13T10:07:32.651Z,11207
2018-09-13T10:08:02.664Z,11310
2018-09-13T10:08:32.642Z,11453
2018-09-13T10:09:02.807Z,11617
2018-09-13T10:09:32.778Z,11783
2018-09-13T10:10:02.781Z,11927
2018-09-13T10:10:32.878Z,11990
2018-09-13T10:11:02.828Z,11917
2018-09-13T10:11:32.888Z,11720
2018-09-13T10:12:02.891Z,11417
2018-09-13T10:12:32.941Z,11043
2018-09-13T10:13:02.949Z,10620
2018-09-13T10:13:32.998Z,10240
2018-09-13T10:14:02.964Z,9820
2018-09-13T10:14:33.089Z,9467
2018-09-13T10:15:03.140Z,9317
2018-09-13T10:15:33.177Z,9433
2018-09-13T10:16:03.184Z,9800
2018-09-13T10:16:33.182Z,10400
2018-09-13T10:17:03.191Z,11123
2018-09-13T10:17:33.201Z,11787
2018-09-13T10:18:03.252Z,12177
2018-09-13T10:18:33.306Z,12360
2018-09-13T10:19:03.303Z,12337
2018-09-13T10:19:33.369Z,12310
2018-09-13T10:20:03.370Z,11517
2018-09-13T10:20:33.485Z,11627
2018-09-13T10:21:03.437Z,11920
2018-09-13T10:21:33.487Z,12373
2018-09-13T10:22:03.498Z,12927
2018-09-13T10:22:33.548Z,13413
2018-09-13T10:23:03.657Z,14010
2018-09-13T10:23:33.629Z,14780
2018-09-13T10:24:03.618Z,15377
2018-09-13T10:24:33.672Z,16020
2018-09-13T10:25:03.773Z,16787
2018-09-13T10:25:33.693Z,17463
2018-09-13T10:26:03.705Z,18103
2018-09-13T10:26:34.519Z,18507
2018-09-13T10:27:03.839Z,18977
2018-09-13T10:27:33.824Z,19307
2018-09-13T10:28:03.830Z,19333
2018-09-13T10:28:33.939Z,19123
2018-09-13T10:29:03.917Z,18657
2018-09-13T10:29:33.975Z,18140
2018-09-13T10:30:03.949Z,17770
2018-09-13T10:30:33.999Z,18010
2018-09-13T10:31:04.008Z,18317
2018-09-13T10:31:34.055Z,18967
2018-09-13T10:32:04.076Z,17473
2018-09-13T10:32:34.150Z,18097
2018-09-13T10:33:04.140Z,19023
2018-09-13T10:33:34.250Z,20260
2018-09-13T10:34:04.206Z,21443
2018-09-13T10:34:34.263Z,22700
2018-09-13T10:35:04.324Z,23383
2018-09-13T10:35:34.348Z,23937
2018-09-13T10:36:04.366Z,24190
2018-09-13T10:36:34.441Z,24230
2018-09-13T10:37:04.423Z,24177
2018-09-13T10:37:34.471Z,24143
2018-09-13T10:38:04.502Z,24010
2018-09-13T10:38:34.522Z,23947
2018-09-13T10:39:04.525Z,24110
2018-09-13T10:39:34.562Z,24287
2018-09-13T10:40:04.625Z,24693
2018-09-13T10:40:34.635Z,25003
2018-09-13T10:41:04.647Z,25383
2018-09-13T10:41:34.795Z,25793
2018-09-13T10:42:04.697Z,25923
2018-09-13T10:42:34.763Z,25870
2018-09-13T10:43:04.784Z,26513
2018-09-13T10:43:34.804Z,26910
2018-09-13T10:44:04.820Z,26967
2018-09-13T10:44:34.895Z,26900
2018-09-13T10:45:04.888Z,26600
2018-09-13T10:45:34.943Z,26027
2018-09-13T10:46:04.945Z,25257
2018-09-13T10:46:35.024Z,24960
2018-09-13T10:47:05.041Z,24317
2018-09-13T10:47:35.150Z,24870
2018-09-13T10:48:05.138Z,25440
2018-09-13T10:48:35.114Z,24523
2018-09-13T10:49:05.194Z,23463
2018-09-13T10:49:35.185Z,22890
2018-09-13T10:50:05.192Z,22270
2018-09-13T10:50:35.402Z,22483
2018-09-13T10:51:05.273Z,23707
2018-09-13T10:51:35.308Z,24997
2018-09-13T10:52:05.396Z,25373
2018-09-13T10:52:35.557Z,24543
2018-09-13T10:53:05.386Z,23853
2018-09-13T10:53:35.489Z,23453
2018-09-13T10:54:05.501Z,23367
2018-09-13T10:54:35.502Z,23380
2018-09-13T10:55:05.559Z,23397
2018-09-13T10:55:35.671Z,23663
2018-09-13T10:56:05.642Z,23887
2018-09-13T10:56:35.695Z,24150
2018-09-13T10:57:05.696Z,24740
2018-09-13T10:57:35.754Z,28493
2018-09-13T10:58:05.739Z,31337
2018-09-13T10:58:35.802Z,32717
2018-09-13T10:59:05.803Z,33690
2018-09-13T10:59:35.884Z,34417
2018-09-13T11:00:05.843Z,35663
2018-09-13T11:00:35.872Z,37243
2018-09-13T11:01:05.908Z,37677
2018-09-13T11:01:35.976Z,36997
2018-09-13T11:02:05.938Z,36257
2018-09-13T11:02:36.046Z,35787
2018-09-13T11:03:06.030Z,35090
2018-09-13T11:03:36.040Z,34027
2018-09-13T11:04:06.130Z,32880
2018-09-13T11:04:36.228Z,33020
2018-09-13T11:05:06.215Z,34487
2018-09-13T11:05:36.305Z,35800
2018-09-13T11:06:06.220Z,37767
2018-09-13T11:06:36.303Z,37337
2018-09-13T11:07:06.301Z,35723
2018-09-13T11:07:36.347Z,36327
2018-09-13T11:08:06.339Z,36473
2018-09-13T11:08:36.377Z,35200
2018-09-13T11:09:06.412Z,33700
2018-09-13T11:09:36.469Z,32780
2018-09-13T11:10:06.429Z,32033
2018-09-13T11:10:36.598Z,31950
2018-09-13T11:11:06.685Z,32613
2018-09-13T11:11:36.555Z,34057
2018-09-13T11:12:06.542Z,36593
2018-09-13T11:12:36.676Z,38620
2018-09-13T11:13:06.666Z,39493